Time;durP1;ratioP1;P1;durP2;ratioP2;P2;SDS_P1;SDS_P2;PMS_P1;PMS_P2;Temp;Humidity;BMP_temperature;BMP_pressure;BME280_temperature;BME280_humidity;BME280_pressure;Samples;Min_cycle;Max_cycle;Signal;HPM_P1;HPM_P2
2023/02/25 00:00:42;;;;;;;0.75;0.75;;;3.00;99.90;;;;;;5036232;28;20017;-60
2023/02/25 00:03:09;;;;;;;1.80;0.80;;;3.00;99.90;;;;;;5035240;28;20399;-58
2023/02/25 00:05:38;;;;;;;5.40;1.35;;;3.00;99.90;;;;;;5037803;28;20109;-59
2023/02/25 00:08:04;;;;;;;2.30;0.80;;;3.00;99.90;;;;;;5032078;28;20051;-58
2023/02/25 00:10:29;;;;;;;2.35;1.13;;;3.00;99.90;;;;;;5037838;28;20578;-57
2023/02/25 00:12:55;;;;;;;3.55;1.25;;;3.00;99.90;;;;;;5033797;28;20082;-62
2023/02/25 00:15:21;;;;;;;2.72;0.68;;;3.00;99.90;;;;;;5041077;28;20044;-60
2023/02/25 00:17:48;;;;;;;5.93;1.30;;;3.00;99.90;;;;;;5031553;28;20030;-55
2023/02/25 00:20:21;;;;;;;3.10;0.80;;;3.00;99.90;;;;;;5035098;28;20025;-61
2023/02/25 00:22:48;;;;;;;4.20;1.17;;;3.00;99.90;;;;;;5032537;28;20022;-59
2023/02/25 00:25:17;;;;;;;1.75;0.68;;;3.00;99.90;;;;;;5027499;28;20314;-57
2023/02/25 00:27:43;;;;;;;1.52;0.70;;;3.10;99.90;;;;;;5033576;28;20059;-61
2023/02/25 00:30:11;;;;;;;1.85;1.25;;;3.00;99.90;;;;;;5035421;28;20021;-61
2023/02/25 00:32:37;;;;;;;4.10;0.88;;;3.00;99.90;;;;;;5035106;28;20061;-60
2023/02/25 00:35:03;;;;;;;2.17;0.80;;;3.00;99.90;;;;;;5034954;28;20120;-61
2023/02/25 00:37:29;;;;;;;4.03;0.82;;;3.10;99.90;;;;;;5038306;28;20179;-61
2023/02/25 00:39:54;;;;;;;0.60;0.60;;;3.10;99.90;;;;;;5034240;28;20492;-62
2023/02/25 00:42:20;;;;;;;1.83;0.85;;;3.00;99.90;;;;;;5044296;28;20601;-61
2023/02/25 00:44:47;;;;;;;1.90;0.60;;;3.00;99.90;;;;;;5054271;28;20060;-62
2023/02/25 00:47:14;;;;;;;3.42;0.93;;;3.00;99.90;;;;;;5036708;28;20112;-61
2023/02/25 00:49:39;;;;;;;0.90;0.57;;;3.00;99.90;;;;;;5038472;28;20030;-57
2023/02/25 00:52:05;;;;;;;1.35;0.75;;;2.90;99.90;;;;;;5040704;28;20044;-61
2023/02/25 00:54:33;;;;;;;2.55;0.63;;;2.90;99.90;;;;;;5038809;28;20024;-60
2023/02/25 00:56:59;;;;;;;1.75;0.85;;;2.90;99.90;;;;;;5033807;28;20028;-61
2023/02/25 00:59:24;;;;;;;2.40;1.05;;;2.90;99.90;;;;;;5039345;28;20403;-63
2023/02/25 01:01:50;;;;;;;1.35;0.77;;;2.90;99.90;;;;;;5040779;28;20025;-61
2023/02/25 01:04:16;;;;;;;1.65;1.10;;;2.90;99.90;;;;;;5037738;28;20387;-57
2023/02/25 01:06:41;;;;;;;1.15;0.85;;;2.80;99.90;;;;;;5034838;28;20017;-61
2023/02/25 01:09:12;;;;;;;1.40;0.60;;;2.80;99.90;;;;;;5036378;28;20039;-61
2023/02/25 01:11:40;;;;;;;1.45;0.57;;;2.90;99.90;;;;;;5042013;28;20495;-57
2023/02/25 01:14:10;;;;;;;1.48;1.00;;;2.80;99.90;;;;;;5044533;28;20025;-59
2023/02/25 01:16:36;;;;;;;1.38;0.73;;;2.80;99.90;;;;;;5038548;28;20298;-61
2023/02/25 01:19:06;;;;;;;1.38;0.75;;;2.80;99.90;;;;;;5047162;28;20042;-61
2023/02/25 01:21:38;;;;;;;1.95;0.60;;;2.80;99.90;;;;;;5039226;28;20025;-62
2023/02/25 01:24:10;;;;;;;1.38;0.65;;;2.80;99.90;;;;;;5041331;28;20051;-61
2023/02/25 01:26:43;;;;;;;0.65;0.45;;;2.90;99.90;;;;;;5045808;28;20075;-60
2023/02/25 01:29:11;;;;;;;0.30;0.30;;;2.90;99.90;;;;;;5043832;28;20040;-56
2023/02/25 01:31:37;;;;;;;1.70;0.45;;;2.90;99.90;;;;;;5043889;28;20438;-60
2023/02/25 01:34:04;;;;;;;2.03;0.80;;;2.80;99.90;;;;;;5039536;28;20116;-61
2023/02/25 01:36:31;;;;;;;0.60;0.50;;;2.80;99.90;;;;;;5041314;28;20037;-59
2023/02/25 01:38:58;;;;;;;1.67;1.00;;;2.80;99.90;;;;;;5043156;28;20525;-59
2023/02/25 01:41:25;;;;;;;1.48;0.50;;;2.90;99.90;;;;;;5034065;28;20026;-61
2023/02/25 01:44:18;;;;;;;0.82;0.52;;;2.80;99.90;;;;;;5036004;28;20025;-61
2023/02/25 01:46:46;;;;;;;4.82;0.57;;;2.80;99.90;;;;;;5042244;28;20033;-60
2023/02/25 01:49:39;;;;;;;0.60;0.60;;;2.80;99.90;;;;;;5036985;28;20041;-59
2023/02/25 01:52:14;;;;;;;1.38;0.68;;;2.70;99.90;;;;;;5033767;28;20071;-60
2023/02/25 01:54:41;;;;;;;0.45;0.45;;;2.80;99.90;;;;;;5046756;28;20033;-61
2023/02/25 01:57:09;;;;;;;0.75;0.45;;;2.70;99.90;;;;;;5038569;28;20053;-62
2023/02/25 01:59:36;;;;;;;0.70;0.70;;;2.70;99.90;;;;;;5045034;28;20025;-61
2023/02/25 02:02:02;;;;;;;1.40;0.63;;;2.70;99.90;;;;;;5037558;28;20034;-60
2023/02/25 02:04:29;;;;;;;2.13;0.70;;;2.70;99.90;;;;;;5046763;28;20495;-59
2023/02/25 02:06:56;;;;;;;1.58;0.88;;;2.70;99.90;;;;;;5040187;28;20072;-60
2023/02/25 02:09:25;;;;;;;1.73;0.90;;;2.70;99.90;;;;;;5040787;28;20124;-59
2023/02/25 02:11:50;;;;;;;1.70;0.57;;;2.70;99.90;;;;;;5033402;28;20395;-58
2023/02/25 02:14:22;;;;;;;1.52;0.70;;;2.70;99.90;;;;;;5039623;28;20042;-59
2023/02/25 02:16:47;;;;;;;0.60;0.60;;;2.70;99.90;;;;;;5041133;28;20033;-61
2023/02/25 02:19:19;;;;;;;0.70;0.52;;;2.70;99.90;;;;;;5040706;28;20106;-59
2023/02/25 02:22:07;;;;;;;1.80;0.75;;;2.80;99.90;;;;;;5037215;28;20033;-58
2023/02/25 02:24:57;;;;;;;2.25;0.80;;;2.80;99.90;;;;;;5040609;28;20488;-59
2023/02/25 02:27:31;;;;;;;1.67;0.80;;;2.80;99.90;;;;;;5042698;28;20086;-58
2023/02/25 02:30:09;;;;;;;6.18;1.65;;;2.80;99.90;;;;;;5033540;28;20036;-60
2023/02/25 02:33:03;;;;;;;1.77;0.80;;;2.80;99.90;;;;;;5041270;28;20029;-56
2023/02/25 02:35:31;;;;;;;2.80;1.00;;;2.70;99.90;;;;;;5036965;28;20075;-56
2023/02/25 02:38:35;;;;;;;3.30;1.05;;;2.70;99.90;;;;;;5040021;28;20112;-60
2023/02/25 02:41:17;;;;;;;2.17;0.68;;;2.70;99.90;;;;;;4961754;28;20035;-58
2023/02/25 02:44:06;;;;;;;1.00;0.90;;;2.70;99.90;;;;;;5025228;28;20037;-61
2023/02/25 02:46:42;;;;;;;1.13;0.93;;;2.70;99.90;;;;;;5039068;28;20033;-61
2023/02/25 02:49:17;;;;;;;3.47;0.90;;;2.60;99.90;;;;;;5034373;28;20060;-57
2023/02/25 02:52:03;;;;;;;1.90;1.17;;;2.60;99.90;;;;;;5034620;28;20468;-57
2023/02/25 02:54:34;;;;;;;1.10;0.90;;;2.50;99.90;;;;;;5038417;28;20029;-58
2023/02/25 02:57:02;;;;;;;2.83;1.15;;;2.50;99.90;;;;;;5030964;28;20420;-58
2023/02/25 02:59:41;;;;;;;1.25;0.70;;;2.50;99.90;;;;;;5042918;28;20040;-57
2023/02/25 03:02:16;;;;;;;1.60;0.82;;;2.50;99.90;;;;;;5042791;28;20033;-57
2023/02/25 03:04:44;;;;;;;2.67;0.80;;;2.50;99.90;;;;;;5039677;28;20029;-60
2023/02/25 03:07:12;;;;;;;1.63;1.20;;;2.50;99.90;;;;;;5029388;28;20034;-60
2023/02/25 03:09:42;;;;;;;0.80;0.80;;;2.50;99.90;;;;;;5038952;28;20033;-54
2023/02/25 03:12:08;;;;;;;1.92;1.25;;;2.50;99.90;;;;;;5032590;28;20033;-59
2023/02/25 03:14:36;;;;;;;2.85;1.00;;;2.50;99.90;;;;;;5039657;28;20036;-59
2023/02/25 03:17:10;;;;;;;1.27;0.90;;;2.50;99.90;;;;;;5032888;28;20052;-59
2023/02/25 03:19:40;;;;;;;1.70;1.50;;;2.40;99.90;;;;;;5034285;28;20109;-58
2023/02/25 03:22:14;;;;;;;1.85;0.85;;;2.40;99.90;;;;;;5036335;28;20053;-61
2023/02/25 03:24:48;;;;;;;1.50;0.80;;;2.40;99.90;;;;;;5039051;28;20511;-59
2023/02/25 03:27:33;;;;;;;3.58;1.00;;;2.40;99.90;;;;;;5042037;28;20369;-59
2023/02/25 03:30:11;;;;;;;1.23;1.00;;;2.40;99.90;;;;;;5035165;28;20271;-59
2023/02/25 03:32:43;;;;;;;1.23;0.90;;;2.30;99.90;;;;;;5041119;28;20394;-61
2023/02/25 03:35:11;;;;;;;1.67;0.88;;;2.30;99.90;;;;;;5042065;28;20061;-59
2023/02/25 03:37:40;;;;;;;3.20;0.93;;;2.30;99.90;;;;;;5038530;28;20028;-57
2023/02/25 03:40:10;;;;;;;2.05;0.75;;;2.30;99.90;;;;;;5042178;28;20056;-57
2023/02/25 03:42:42;;;;;;;2.40;0.55;;;2.30;99.90;;;;;;5039798;28;20112;-57
2023/02/25 03:45:11;;;;;;;2.25;0.77;;;2.30;99.90;;;;;;5039852;28;20025;-60
2023/02/25 03:47:38;;;;;;;1.05;0.82;;;2.20;99.90;;;;;;5039856;28;20022;-54
2023/02/25 03:50:27;;;;;;;1.08;1.00;;;2.20;99.90;;;;;;5033659;28;20033;-59
2023/02/25 03:52:53;;;;;;;2.15;1.00;;;2.20;99.90;;;;;;5030584;28;20028;-59
2023/02/25 03:55:19;;;;;;;1.17;0.70;;;2.10;99.90;;;;;;5033847;28;20395;-58
2023/02/25 03:57:47;;;;;;;5.78;1.27;;;2.20;99.90;;;;;;5041216;28;20351;-58
2023/02/25 04:00:21;;;;;;;1.50;0.77;;;2.10;99.90;;;;;;5037475;28;20492;-55
2023/02/25 04:02:48;;;;;;;1.00;0.80;;;2.10;99.90;;;;;;5045890;28;20384;-59
2023/02/25 04:05:15;;;;;;;2.15;1.00;;;2.10;99.90;;;;;;5040985;28;20014;-59
2023/02/25 04:07:41;;;;;;;1.38;0.90;;;2.10;99.90;;;;;;5040125;28;20029;-57
2023/02/25 04:10:09;;;;;;;5.30;2.05;;;2.00;99.90;;;;;;5037485;28;20728;-57
2023/02/25 04:12:35;;;;;;;1.38;0.98;;;2.00;99.90;;;;;;5039278;28;20044;-57
2023/02/25 04:15:01;;;;;;;3.03;0.82;;;2.00;99.90;;;;;;5036732;28;20026;-58
2023/02/25 04:17:27;;;;;;;2.03;0.90;;;2.00;99.90;;;;;;5035756;28;20069;-60
2023/02/25 04:19:52;;;;;;;0.60;0.60;;;1.90;99.90;;;;;;5038171;28;20361;-60
2023/02/25 04:22:18;;;;;;;2.38;0.90;;;1.90;99.90;;;;;;5036117;28;20045;-59
2023/02/25 04:24:43;;;;;;;3.70;0.80;;;1.90;99.90;;;;;;5039262;28;20484;-60
2023/02/25 04:27:09;;;;;;;4.30;0.70;;;1.80;99.90;;;;;;5041026;28;20422;-61
2023/02/25 04:29:34;;;;;;;1.55;0.98;;;1.80;99.90;;;;;;5040933;28;20079;-59
2023/02/25 04:32:00;;;;;;;3.75;1.02;;;1.80;99.90;;;;;;5039624;28;20291;-56
2023/02/25 04:34:25;;;;;;;4.95;1.30;;;1.80;99.90;;;;;;5038406;28;20033;-59
2023/02/25 04:36:51;;;;;;;1.50;0.88;;;1.80;99.90;;;;;;5041311;28;20049;-58
2023/02/25 04:39:17;;;;;;;1.85;0.75;;;1.80;99.90;;;;;;5041195;28;20076;-56
2023/02/25 04:41:43;;;;;;;2.67;0.90;;;1.80;99.90;;;;;;5042863;28;20491;-55
2023/02/25 04:44:09;;;;;;;2.13;1.10;;;1.80;99.90;;;;;;5037176;28;20037;-59
2023/02/25 04:46:37;;;;;;;1.63;1.10;;;1.80;99.90;;;;;;5042434;28;20044;-60
2023/02/25 04:49:04;;;;;;;2.08;0.88;;;1.80;99.90;;;;;;5044642;28;20041;-59
2023/02/25 04:51:30;;;;;;;2.05;1.00;;;1.90;99.90;;;;;;5039120;28;20037;-60
2023/02/25 04:53:55;;;;;;;3.15;1.00;;;1.90;99.90;;;;;;5042364;28;20067;-54
2023/02/25 04:56:21;;;;;;;0.85;0.65;;;1.80;99.90;;;;;;5041348;28;20107;-60
2023/02/25 04:58:46;;;;;;;2.65;1.02;;;1.80;99.90;;;;;;5044266;28;20279;-59
2023/02/25 05:01:12;;;;;;;0.90;0.57;;;1.90;99.90;;;;;;5044821;28;20430;-59
2023/02/25 05:03:38;;;;;;;2.75;0.70;;;1.80;99.90;;;;;;5044231;28;20026;-59
2023/02/25 05:06:05;;;;;;;1.58;0.77;;;1.90;99.90;;;;;;5044905;28;20104;-60
2023/02/25 05:08:31;;;;;;;0.57;0.50;;;1.90;99.90;;;;;;5042347;28;20542;-60
2023/02/25 05:10:57;;;;;;;1.80;0.80;;;1.80;99.90;;;;;;5044568;28;20025;-60
2023/02/25 05:13:22;;;;;;;1.73;0.57;;;1.90;99.90;;;;;;5043747;28;20403;-60
2023/02/25 05:15:48;;;;;;;1.88;0.88;;;1.90;99.90;;;;;;5041355;28;20036;-57
2023/02/25 05:18:13;;;;;;;4.47;0.80;;;1.90;99.90;;;;;;5039653;28;20029;-58
2023/02/25 05:20:41;;;;;;;3.47;0.85;;;1.90;99.90;;;;;;5042561;28;20036;-61
2023/02/25 05:23:07;;;;;;;3.65;0.80;;;1.80;99.90;;;;;;5043858;28;20106;-59
2023/02/25 05:25:32;;;;;;;2.83;0.68;;;1.90;99.90;;;;;;5043276;28;20479;-60
2023/02/25 05:27:58;;;;;;;0.60;0.60;;;1.90;99.90;;;;;;5044950;28;20108;-60
2023/02/25 05:30:24;;;;;;;2.17;0.80;;;1.90;99.90;;;;;;5043844;28;20033;-59
2023/02/25 05:32:50;;;;;;;1.92;1.10;;;1.80;99.90;;;;;;5037212;28;20037;-59
2023/02/25 05:35:15;;;;;;;1.05;0.50;;;1.90;99.90;;;;;;5045064;28;20490;-58
2023/02/25 05:37:41;;;;;;;1.00;0.50;;;1.90;99.90;;;;;;5033865;28;20076;-60
2023/02/25 05:40:12;;;;;;;1.02;0.60;;;1.90;99.90;;;;;;5042859;28;20594;-57
2023/02/25 05:42:38;;;;;;;1.38;0.60;;;1.90;99.90;;;;;;5040684;28;20032;-59
2023/02/25 05:45:06;;;;;;;3.55;0.60;;;1.90;99.90;;;;;;5042263;28;20475;-57
2023/02/25 05:47:31;;;;;;;0.50;0.50;;;1.90;99.90;;;;;;5045495;28;20036;-61
2023/02/25 05:49:57;;;;;;;0.57;0.57;;;1.90;99.90;;;;;;5039835;28;20025;-60
2023/02/25 05:52:22;;;;;;;1.45;0.60;;;1.90;99.90;;;;;;5046405;28;20403;-59
2023/02/25 05:54:48;;;;;;;4.25;1.20;;;1.90;99.90;;;;;;5039296;28;20575;-60
2023/02/25 05:57:13;;;;;;;1.42;0.90;;;1.90;99.90;;;;;;5039262;28;20029;-58
2023/02/25 05:59:39;;;;;;;2.05;0.60;;;1.90;99.90;;;;;;5044466;28;20068;-57
2023/02/25 06:02:04;;;;;;;3.80;0.90;;;1.90;99.90;;;;;;5036641;28;20063;-55
2023/02/25 06:04:30;;;;;;;5.03;0.95;;;1.80;99.90;;;;;;5042916;28;20108;-60
2023/02/25 06:06:55;;;;;;;0.85;0.70;;;1.90;99.90;;;;;;5033351;28;20025;-59
2023/02/25 06:09:21;;;;;;;1.25;0.90;;;1.90;99.90;;;;;;5038194;28;20037;-56
2023/02/25 06:11:47;;;;;;;2.15;0.70;;;1.90;99.90;;;;;;5041433;28;20029;-58
2023/02/25 06:14:14;;;;;;;4.55;1.00;;;1.90;99.90;;;;;;5043517;28;20052;-60
2023/02/25 06:16:40;;;;;;;2.33;0.60;;;1.90;99.90;;;;;;5035298;28;20045;-58
2023/02/25 06:19:07;;;;;;;0.40;0.40;;;1.90;99.90;;;;;;5038707;28;20029;-58
2023/02/25 06:21:34;;;;;;;4.93;0.77;;;1.90;99.90;;;;;;5055892;28;20028;-60
2023/02/25 06:24:01;;;;;;;2.83;0.80;;;1.90;99.90;;;;;;5042903;28;20602;-57
2023/02/25 06:26:27;;;;;;;1.02;0.63;;;1.90;99.90;;;;;;5035950;28;20085;-60
2023/02/25 06:28:54;;;;;;;0.80;0.80;;;1.90;99.90;;;;;;5046611;28;20028;-61
2023/02/25 06:31:21;;;;;;;1.40;0.63;;;1.90;99.90;;;;;;5034170;28;20029;-60
2023/02/25 06:33:49;;;;;;;1.45;0.70;;;1.90;99.90;;;;;;5038115;28;20503;-60
2023/02/25 06:36:16;;;;;;;0.80;0.55;;;1.90;99.90;;;;;;5039434;28;20107;-59
2023/02/25 06:38:43;;;;;;;2.65;0.50;;;1.80;99.90;;;;;;5037998;28;20081;-62
2023/02/25 06:41:16;;;;;;;1.88;0.80;;;1.80;99.90;;;;;;5043143;28;20053;-60
2023/02/25 06:43:42;;;;;;;5.20;1.13;;;1.80;99.90;;;;;;5041169;28;20033;-59
2023/02/25 06:46:11;;;;;;;3.60;0.95;;;1.80;99.90;;;;;;5041067;28;20067;-59
2023/02/25 06:48:36;;;;;;;1.50;0.60;;;1.70;99.90;;;;;;5042986;28;20033;-59
2023/02/25 06:51:07;;;;;;;2.22;0.90;;;1.70;99.90;;;;;;5042950;28;20104;-61
2023/02/25 06:53:34;;;;;;;2.53;0.70;;;1.60;99.90;;;;;;5038391;28;20045;-58
2023/02/25 06:55:59;;;;;;;4.40;0.80;;;1.50;99.90;;;;;;5040639;28;20025;-58
2023/02/25 06:58:25;;;;;;;4.03;0.80;;;1.30;99.90;;;;;;5040379;28;20499;-56
2023/02/25 07:00:51;;;;;;;1.42;1.05;;;1.30;99.90;;;;;;5032491;28;20490;-57
2023/02/25 07:03:16;;;;;;;4.20;1.25;;;1.20;99.90;;;;;;5041830;28;20029;-56
2023/02/25 07:05:42;;;;;;;1.60;1.05;;;1.20;99.90;;;;;;5041173;28;20032;-60
2023/02/25 07:08:07;;;;;;;3.28;0.80;;;1.10;99.90;;;;;;5042419;28;20491;-58
2023/02/25 07:10:33;;;;;;;5.50;0.95;;;1.10;99.90;;;;;;5039364;28;20180;-59
2023/02/25 07:12:59;;;;;;;3.50;0.70;;;1.10;99.90;;;;;;5040381;28;20037;-60
2023/02/25 07:15:24;;;;;;;1.05;0.65;;;1.10;99.90;;;;;;5040449;28;20052;-59
2023/02/25 07:17:50;;;;;;;2.75;1.00;;;1.10;99.90;;;;;;5038578;28;20514;-61
2023/02/25 07:20:16;;;;;;;4.05;0.80;;;1.10;99.90;;;;;;5038315;28;20416;-57
2023/02/25 07:22:42;;;;;;;1.75;1.05;;;1.10;99.90;;;;;;5040715;28;20022;-58
2023/02/25 07:25:12;;;;;;;0.70;0.60;;;1.10;99.90;;;;;;5039840;28;20037;-58
2023/02/25 07:27:41;;;;;;;1.95;0.65;;;1.20;99.90;;;;;;5041299;28;20033;-55
2023/02/25 07:30:08;;;;;;;1.33;0.50;;;1.10;99.90;;;;;;5039226;28;20035;-60
2023/02/25 07:32:34;;;;;;;1.60;0.70;;;1.20;99.90;;;;;;5040624;28;20039;-57
2023/02/25 07:34:59;;;;;;;2.00;0.68;;;1.20;99.90;;;;;;5054786;28;20403;-59
2023/02/25 07:37:25;;;;;;;1.30;0.70;;;1.30;99.90;;;;;;5041921;28;20520;-58
2023/02/25 07:39:50;;;;;;;3.35;0.80;;;1.30;99.90;;;;;;5040003;28;20021;-58
2023/02/25 07:42:16;;;;;;;2.03;0.70;;;1.30;99.90;;;;;;5041344;28;20087;-61
2023/02/25 07:44:41;;;;;;;2.38;0.90;;;1.40;99.90;;;;;;5032732;28;20507;-59
2023/02/25 07:47:07;;;;;;;3.00;0.60;;;1.40;99.90;;;;;;5044962;28;20029;-62
2023/02/25 07:49:32;;;;;;;1.80;0.85;;;1.40;99.90;;;;;;5033343;28;20039;-60
2023/02/25 07:51:59;;;;;;;0.95;0.30;;;1.50;99.90;;;;;;5040916;28;20291;-56
2023/02/25 07:54:25;;;;;;;1.15;0.60;;;1.50;99.90;;;;;;5041734;28;20020;-62
2023/02/25 07:56:50;;;;;;;0.90;0.47;;;1.50;99.90;;;;;;5040368;28;20502;-59
2023/02/25 07:59:17;;;;;;;1.10;0.77;;;1.60;99.90;;;;;;5041168;28;20021;-62
2023/02/25 08:01:43;;;;;;;4.57;0.85;;;1.60;99.90;;;;;;5039522;28;20017;-59
2023/02/25 08:04:09;;;;;;;2.55;0.68;;;1.60;99.90;;;;;;5040951;28;20032;-58
2023/02/25 08:06:38;;;;;;;2.30;0.80;;;1.60;99.90;;;;;;5040113;28;20028;-60
2023/02/25 08:09:05;;;;;;;1.88;0.50;;;1.60;99.90;;;;;;5041165;28;20483;-62
2023/02/25 08:11:31;;;;;;;1.48;0.45;;;1.60;99.90;;;;;;5040198;28;20075;-59
2023/02/25 08:13:59;;;;;;;0.88;0.60;;;1.50;99.90;;;;;;5041159;28;20507;-60
2023/02/25 08:16:25;;;;;;;2.75;0.80;;;1.50;99.90;;;;;;5033034;28;20119;-61
2023/02/25 08:18:51;;;;;;;4.22;1.00;;;1.40;99.90;;;;;;5041870;28;20556;-61
2023/02/25 08:21:20;;;;;;;1.63;0.88;;;1.40;99.90;;;;;;5037307;28;20021;-60
2023/02/25 08:23:47;;;;;;;2.53;0.90;;;1.40;99.90;;;;;;5059099;28;20368;-60
2023/02/25 08:26:16;;;;;;;4.47;1.33;;;1.40;99.90;;;;;;5037443;28;20099;-58
2023/02/25 08:28:42;;;;;;;3.53;1.02;;;1.40;99.90;;;;;;5045172;28;20025;-58
2023/02/25 08:31:10;;;;;;;2.83;1.27;;;1.40;99.90;;;;;;5035715;28;20026;-56
2023/02/25 08:33:38;;;;;;;1.38;0.93;;;1.40;99.90;;;;;;5045465;28;20026;-57
2023/02/25 08:36:12;;;;;;;4.22;1.23;;;1.40;99.90;;;;;;5041767;28;20099;-54
2023/02/25 08:38:38;;;;;;;9.98;0.70;;;1.40;99.90;;;;;;5038747;28;20033;-59
2023/02/25 08:41:05;;;;;;;2.35;0.85;;;1.40;99.90;;;;;;5039384;28;20112;-55
2023/02/25 08:43:31;;;;;;;1.80;0.77;;;1.40;99.90;;;;;;5037866;28;20029;-57
2023/02/25 08:45:57;;;;;;;2.38;0.82;;;1.40;99.90;;;;;;5044261;28;20514;-60
2023/02/25 08:48:22;;;;;;;2.45;0.68;;;1.50;99.90;;;;;;5036433;28;20026;-55
2023/02/25 08:50:48;;;;;;;0.73;0.52;;;1.40;99.90;;;;;;5040183;28;20134;-59
2023/02/25 08:53:14;;;;;;;3.17;0.90;;;1.50;99.90;;;;;;5038902;28;20021;-57
2023/02/25 08:55:39;;;;;;;2.90;1.05;;;1.50;99.90;;;;;;5039285;28;20025;-53
2023/02/25 08:58:06;;;;;;;3.85;0.73;;;1.60;99.90;;;;;;5042664;28;20025;-60
2023/02/25 09:00:31;;;;;;;3.10;0.75;;;1.60;99.90;;;;;;5038525;28;20092;-60
2023/02/25 09:02:57;;;;;;;3.30;0.60;;;1.60;99.90;;;;;;5044345;28;20021;-59
2023/02/25 09:05:23;;;;;;;0.60;0.60;;;1.70;99.90;;;;;;5036915;28;20045;-60
2023/02/25 09:07:50;;;;;;;2.33;0.77;;;1.70;99.90;;;;;;5039152;28;20033;-59
2023/02/25 09:10:16;;;;;;;2.10;0.52;;;1.70;99.90;;;;;;5039382;28;20029;-59
2023/02/25 09:12:43;;;;;;;3.50;0.75;;;1.70;99.90;;;;;;5039631;28;20499;-58
2023/02/25 09:15:10;;;;;;;4.47;0.82;;;1.70;99.90;;;;;;5041274;28;20022;-59
2023/02/25 09:17:37;;;;;;;3.20;1.05;;;1.60;99.90;;;;;;5036482;28;20057;-62
2023/02/25 09:20:06;;;;;;;1.02;0.68;;;1.70;99.90;;;;;;5043572;28;20044;-59
2023/02/25 09:22:34;;;;;;;5.00;0.80;;;1.70;99.90;;;;;;5039230;28;20021;-56
2023/02/25 09:25:00;;;;;;;2.58;1.05;;;1.70;99.90;;;;;;5040447;28;20483;-60
2023/02/25 09:27:27;;;;;;;0.90;0.32;;;1.70;99.90;;;;;;5043909;28;20031;-62
2023/02/25 09:29:52;;;;;;;1.45;0.82;;;1.70;99.90;;;;;;5043634;28;20495;-61
2023/02/25 09:32:20;;;;;;;2.28;0.70;;;1.80;99.90;;;;;;5044206;28;20028;-61
2023/02/25 09:34:47;;;;;;;5.88;1.10;;;1.80;99.90;;;;;;5035562;28;20032;-59
2023/02/25 09:37:13;;;;;;;4.15;1.00;;;1.90;99.90;;;;;;5046795;28;20056;-59
2023/02/25 09:39:41;;;;;;;1.40;0.90;;;1.90;99.90;;;;;;5042076;28;20037;-61
2023/02/25 09:42:36;;;;;;;2.25;0.70;;;2.00;99.90;;;;;;5043365;28;20059;-58
2023/02/25 09:45:03;;;;;;;3.83;0.88;;;2.00;99.90;;;;;;5044586;28;20068;-61
2023/02/25 09:47:48;;;;;;;2.53;0.77;;;2.10;99.90;;;;;;5041937;28;20033;-61
2023/02/25 09:50:21;;;;;;;3.05;1.30;;;2.10;99.90;;;;;;5039020;28;20026;-57
2023/02/25 09:53:04;;;;;;;2.20;0.68;;;2.30;99.90;;;;;;5046568;28;20546;-59
2023/02/25 09:55:41;;;;;;;3.80;1.10;;;2.60;99.90;;;;;;5030950;28;20028;-59
2023/02/25 09:58:39;;;;;;;2.08;0.80;;;2.60;99.90;;;;;;5044667;28;20483;-56
2023/02/25 10:01:20;;;;;;;2.00;0.90;;;2.40;99.90;;;;;;5033549;28;20134;-60
2023/02/25 10:04:01;;;;;;;3.75;1.00;;;2.30;99.90;;;;;;5040503;28;20399;-60
2023/02/25 10:06:38;;;;;;;2.45;0.93;;;2.30;99.90;;;;;;5043073;28;20024;-60
2023/02/25 10:09:17;;;;;;;2.17;1.20;;;2.20;99.90;;;;;;5042638;28;20040;-59
2023/02/25 10:11:59;;;;;;;1.88;0.90;;;2.10;99.90;;;;;;5040518;28;20029;-58
2023/02/25 10:14:47;;;;;;;1.05;0.43;;;2.10;99.90;;;;;;5046945;28;20566;-60
2023/02/25 10:17:34;;;;;;;0.63;0.57;;;2.00;99.90;;;;;;5032355;28;20048;-57
2023/02/25 10:20:29;;;;;;;6.22;1.02;;;1.90;99.90;;;;;;5032969;28;20376;-59
2023/02/25 10:23:03;;;;;;;1.70;1.00;;;1.90;99.90;;;;;;5035761;28;20020;-56
2023/02/25 10:25:35;;;;;;;4.68;0.98;;;1.90;99.90;;;;;;5042489;28;20491;-61
2023/02/25 10:28:06;;;;;;;6.45;0.98;;;1.90;99.90;;;;;;5036562;28;20100;-59
2023/02/25 10:30:57;;;;;;;4.88;1.23;;;1.90;99.90;;;;;;5037434;28;20043;-57
2023/02/25 10:33:26;;;;;;;4.25;0.65;;;2.00;99.90;;;;;;5035862;28;20063;-59
2023/02/25 10:36:14;;;;;;;2.63;0.77;;;2.00;99.90;;;;;;5034680;28;20032;-59
2023/02/25 10:38:49;;;;;;;4.10;0.85;;;2.00;99.90;;;;;;5040935;28;20029;-58
2023/02/25 10:41:15;;;;;;;4.85;1.17;;;2.00;99.90;;;;;;5037877;28;20029;-58
2023/02/25 10:43:42;;;;;;;3.75;0.98;;;2.10;99.90;;;;;;5041209;28;20552;-57
2023/02/25 10:46:15;;;;;;;0.93;0.63;;;2.10;99.90;;;;;;5040483;28;20140;-59
2023/02/25 10:48:47;;;;;;;4.28;0.82;;;2.20;99.90;;;;;;5041165;28;20040;-60
2023/02/25 10:51:16;;;;;;;1.88;0.63;;;2.20;99.90;;;;;;5037060;28;20091;-56
2023/02/25 10:53:56;;;;;;;5.47;0.77;;;2.30;99.90;;;;;;5040874;28;20100;-58
2023/02/25 10:56:24;;;;;;;4.55;1.15;;;2.40;99.90;;;;;;5038773;28;20024;-58
2023/02/25 10:59:21;;;;;;;2.67;0.68;;;2.40;99.90;;;;;;5030272;28;20566;-60
2023/02/25 11:01:48;;;;;;;4.68;0.60;;;2.50;99.90;;;;;;5039760;28;20045;-59
2023/02/25 11:04:22;;;;;;;2.65;0.95;;;2.40;99.90;;;;;;5042231;28;20122;-57
2023/02/25 11:06:48;;;;;;;6.68;0.85;;;2.50;99.90;;;;;;5037050;28;20253;-60
2023/02/25 11:09:20;;;;;;;8.38;0.95;;;2.60;99.90;;;;;;5043277;28;20091;-56
2023/02/25 11:11:57;;;;;;;3.38;0.80;;;2.80;99.90;;;;;;5039078;28;20041;-55
2023/02/25 11:14:32;;;;;;;3.95;1.00;;;3.00;99.90;;;;;;5045620;28;20040;-57
2023/02/25 11:17:12;;;;;;;2.75;0.70;;;2.90;99.90;;;;;;5035014;28;20036;-53
2023/02/25 11:19:41;;;;;;;6.20;0.98;;;2.80;99.90;;;;;;5038166;28;20068;-58
2023/02/25 11:22:30;;;;;;;4.72;0.98;;;2.80;99.90;;;;;;5037909;28;20725;-57
2023/02/25 11:25:02;;;;;;;3.35;1.00;;;2.60;99.90;;;;;;5028430;28;20037;-59
2023/02/25 11:27:32;;;;;;;2.45;1.08;;;2.60;99.90;;;;;;5040578;28;20021;-58
2023/02/25 11:30:06;;;;;;;3.47;1.45;;;2.90;99.90;;;;;;5037397;28;20030;-58
2023/02/25 11:32:32;;;;;;;5.93;0.95;;;3.10;99.90;;;;;;5041253;28;20056;-59
2023/02/25 11:35:07;;;;;;;4.72;0.80;;;3.20;99.90;;;;;;5037683;28;20025;-57
2023/02/25 11:37:46;;;;;;;4.55;1.13;;;3.20;99.90;;;;;;5041960;28;20025;-61
2023/02/25 11:40:23;;;;;;;2.38;0.82;;;3.10;99.90;;;;;;5038638;28;20025;-57
2023/02/25 11:43:04;;;;;;;3.47;0.90;;;3.00;99.90;;;;;;5042963;28;20025;-60
2023/02/25 11:45:33;;;;;;;4.22;0.80;;;3.00;99.90;;;;;;5040558;28;20472;-58
2023/02/25 11:48:01;;;;;;;4.03;0.90;;;3.20;99.90;;;;;;5041455;28;20484;-59
2023/02/25 11:50:36;;;;;;;6.45;1.30;;;3.10;99.90;;;;;;5038271;28;20029;-57
2023/02/25 11:53:26;;;;;;;4.47;0.70;;;3.00;99.90;;;;;;5042039;28;20037;-57
2023/02/25 11:56:03;;;;;;;3.85;0.85;;;2.90;99.90;;;;;;5026389;28;20373;-58
2023/02/25 11:58:44;;;;;;;2.75;0.82;;;2.80;99.90;;;;;;5037877;28;20087;-59
2023/02/25 12:01:16;;;;;;;5.70;1.27;;;2.80;99.90;;;;;;5030483;28;20025;-54
2023/02/25 12:03:59;;;;;;;3.08;0.98;;;3.00;99.90;;;;;;5037655;28;20076;-56
2023/02/25 12:06:55;;;;;;;2.75;0.90;;;3.10;99.90;;;;;;5039777;28;20127;-60
2023/02/25 12:09:37;;;;;;;3.92;1.30;;;3.20;99.90;;;;;;5030621;28;20506;-57
2023/02/25 12:12:18;;;;;;;5.40;1.00;;;3.30;99.90;;;;;;5037242;28;20045;-59
2023/02/25 12:15:02;;;;;;;5.38;1.00;;;3.50;99.90;;;;;;5038583;28;20036;-57
2023/02/25 12:17:49;;;;;;;3.10;1.00;;;3.50;99.90;;;;;;5035510;28;21016;-58
2023/02/25 12:20:23;;;;;;;2.75;0.88;;;3.40;99.90;;;;;;5041283;28;20391;-56
2023/02/25 12:23:10;;;;;;;3.85;1.17;;;3.30;99.90;;;;;;5039435;28;20104;-57
2023/02/25 12:25:48;;;;;;;3.70;1.13;;;3.20;99.90;;;;;;5039257;28;20021;-59
2023/02/25 12:28:44;;;;;;;1.60;0.57;;;3.20;99.90;;;;;;5038634;28;20391;-58
2023/02/25 12:31:37;;;;;;;3.20;1.05;;;3.30;99.90;;;;;;5034987;28;20056;-60
2023/02/25 12:34:05;;;;;;;3.53;1.30;;;3.20;99.90;;;;;;5043352;28;20033;-59
2023/02/25 12:37:05;;;;;;;4.07;0.85;;;3.20;99.90;;;;;;5038553;28;20093;-58
2023/02/25 12:39:42;;;;;;;2.17;1.10;;;3.20;99.90;;;;;;5039273;28;20083;-56
2023/02/25 12:42:45;;;;;;;3.60;1.40;;;3.10;99.90;;;;;;5039700;28;20036;-58
2023/02/25 12:45:32;;;;;;;3.58;1.13;;;3.30;99.90;;;;;;5037651;28;20100;-58
2023/02/25 12:48:19;;;;;;;2.58;0.93;;;3.30;99.90;;;;;;5033143;28;20384;-59
2023/02/25 12:51:13;;;;;;;0.93;0.70;;;3.40;99.90;;;;;;5034213;28;20039;-58
2023/02/25 12:53:54;;;;;;;2.45;0.90;;;3.50;99.90;;;;;;5034348;28;20030;-56
2023/02/25 12:56:29;;;;;;;3.88;0.70;;;3.60;99.00;;;;;;5039951;28;20079;-54
2023/02/25 12:59:13;;;;;;;2.15;0.95;;;3.60;97.00;;;;;;5027083;28;20444;-56
2023/02/25 13:02:09;;;;;;;5.78;1.23;;;3.60;97.40;;;;;;5034238;28;20471;-55
2023/02/25 13:04:44;;;;;;;6.28;1.25;;;3.60;97.60;;;;;;5038361;28;20056;-59
2023/02/25 13:07:13;;;;;;;1.95;0.75;;;3.60;97.50;;;;;;5033153;28;20048;-53
2023/02/25 13:09:54;;;;;;;3.90;0.80;;;3.70;98.20;;;;;;5041682;28;20388;-61
2023/02/25 13:12:43;;;;;;;0.90;0.63;;;3.60;98.20;;;;;;5028980;28;20196;-55
2023/02/25 13:15:50;;;;;;;3.20;0.50;;;3.60;98.40;;;;;;5030574;28;20030;-60
2023/02/25 13:18:53;;;;;;;4.55;0.73;;;3.50;96.70;;;;;;5001049;28;20037;-57